»·PEaware :: N416JK KSMX-KBFL

N416JK :: KSMX-KBFL

FLIGHT INFORMATION

Flight Status: Arrived
Operator: Privately registered:
United States
More flights under this callsign
Pilot: John K. (4202)
Aircraft: CESSNA 206 STATIONAIR
(C206)
More flights by this aircraft type
Origin: KSMX Santa Maria Pub/Capt Hancock
United States
Destination: KBFL Meadows
United States
More flights between these airports :: More routes between these airports
Route: BUELT4 FLW EHF
File this flight plan on PilotEdge
Remarks: DO BETTER THAN YESTERDAY!
Altitude:
(Current/Filed)
9,000ft
Speed:
(Current/Filed)
140kts
Departed: 24-Sep-17 08:54 AM
Arrived: 24-Sep-17 09:45 AM
Distance/Time
Traveled:
76nm/0:51
Distance/Time
To Go:
Arrived

Flight Plot

Page will automatically refresh every two minutes.

Flight plan parsing failed; only flown route is shown


Map Options




Map Legend


Flown Route
Filed Route
Departure Airport
Arrival Airport
Navaid (VOR, NDB)
Fix

Horizontal Profiles

Position Reports

Time Latitude Longitude Heading Altitude Ground
Speed
24-Sep-17 08:46 34.898630 -120.448128 134 265ft 0kts
24-Sep-17 08:47 34.898630 -120.448128 134 265ft 0kts
24-Sep-17 08:48 34.898630 -120.448128 134 265ft 0kts
24-Sep-17 08:49 34.898630 -120.448128 134 265ft 0kts
24-Sep-17 08:50 34.898630 -120.448128 134 265ft 0kts
24-Sep-17 08:51 34.898630 -120.448128 134 265ft 0kts
24-Sep-17 08:52 34.898630 -120.448128 134 265ft 0kts
24-Sep-17 08:53 34.893399 -120.444862 192 265ft 0kts
24-Sep-17 08:54 34.893399 -120.444862 192 265ft 0kts
24-Sep-17 08:55 34.893399 -120.444862 192 265ft 0kts
24-Sep-17 08:56 34.893399 -120.444862 192 265ft 0kts
24-Sep-17 08:57 34.893399 -120.444862 192 265ft 0kts
24-Sep-17 08:58 34.896419 -120.450095 313 297ft 89kts
24-Sep-17 08:59 34.915930 -120.460970 33 1676ft 88kts
24-Sep-17 09:00 34.905308 -120.450677 198 2978ft 93kts
24-Sep-17 09:01 34.879600 -120.463569 191 4062ft 119kts
24-Sep-17 09:02 34.850129 -120.443296 142 4963ft 130kts
24-Sep-17 09:03 34.821538 -120.419473 142 5840ft 126kts
24-Sep-17 09:04 34.793655 -120.395872 141 6734ft 119kts
24-Sep-17 09:05 34.767526 -120.373803 140 7629ft 114kts
24-Sep-17 09:06 34.738926 -120.349641 142 8025ft 143kts
24-Sep-17 09:07 34.706328 -120.322374 142 8223ft 138kts
24-Sep-17 09:08 34.676731 -120.297527 141 8814ft 124kts
24-Sep-17 09:09 34.660691 -120.265951 46 8986ft 127kts
24-Sep-17 09:10 34.688874 -120.239056 32 8983ft 132kts
24-Sep-17 09:11 34.718318 -120.212035 32 8982ft 133kts
24-Sep-17 09:12 34.747553 -120.185146 32 8981ft 133kts
24-Sep-17 09:13 34.777275 -120.157805 32 8981ft 138kts
24-Sep-17 09:14 34.808051 -120.129425 32 8980ft 141kts
24-Sep-17 09:15 34.839254 -120.100628 32 8979ft 141kts
24-Sep-17 09:16 34.870327 -120.071929 32 8979ft 141kts
24-Sep-17 09:17 34.900795 -120.043770 32 8980ft 141kts
24-Sep-17 09:18 34.931794 -120.015090 33 8981ft 141kts
24-Sep-17 09:19 34.963069 -119.986124 33 8982ft 141kts
24-Sep-17 09:20 34.994061 -119.957391 33 8981ft 141kts
24-Sep-17 09:21 35.023855 -119.929743 33 8981ft 141kts
24-Sep-17 09:22 35.055135 -119.900684 33 8981ft 141kts
24-Sep-17 09:23 35.085575 -119.872667 34 8980ft 141kts
24-Sep-17 09:24 35.109197 -119.834413 53 8979ft 144kts
24-Sep-17 09:25 35.130476 -119.793173 53 8980ft 144kts
24-Sep-17 09:26 35.151792 -119.751692 53 8981ft 144kts
24-Sep-17 09:27 35.172666 -119.711008 54 8986ft 143kts
24-Sep-17 09:28 35.193558 -119.670234 54 8990ft 142kts
24-Sep-17 09:29 35.214307 -119.629694 54 8996ft 141kts
24-Sep-17 09:30 35.234998 -119.589176 55 9001ft 140kts
24-Sep-17 09:31 35.255385 -119.549193 55 9005ft 139kts
24-Sep-17 09:32 35.261991 -119.503456 94 8980ft 145kts
24-Sep-17 09:33 35.255351 -119.454815 93 8980ft 144kts
24-Sep-17 09:34 35.249788 -119.406565 93 8980ft 144kts
24-Sep-17 09:35 35.244248 -119.358340 93 8980ft 144kts
24-Sep-17 09:36 35.238796 -119.310798 93 8980ft 144kts
24-Sep-17 09:37 35.240724 -119.263538 65 8981ft 139kts
24-Sep-17 09:38 35.255871 -119.220261 63 8980ft 139kts
24-Sep-17 09:39 35.271281 -119.177459 63 8979ft 135kts
24-Sep-17 09:40 35.286157 -119.135909 63 8980ft 133kts
24-Sep-17 09:41 35.301389 -119.093480 63 8441ft 142kts
24-Sep-17 09:42 35.315842 -119.055849 63 7020ft 112kts
24-Sep-17 09:43 35.330829 -119.024036 47 5526ft 111kts
24-Sep-17 09:44 35.352254 -118.998912 31 3631ft 110kts
24-Sep-17 09:45 35.380924 -119.001466 342 2138ft 100kts
24-Sep-17 09:46 35.401958 -119.017769 315 1575ft 93kts
24-Sep-17 09:47 35.420870 -119.040485 313 866ft 90kts
24-Sep-17 09:48 35.436090 -119.058994 312 508ft 58kts
24-Sep-17 09:49 35.440604 -119.063004 45 508ft 0kts
24-Sep-17 09:50 35.440611 -119.062142 129 508ft 8kts
24-Sep-17 09:51 35.432577 -119.052390 136 508ft 43kts
24-Sep-17 09:52 35.430017 -119.047741 77 508ft 8kts
24-Sep-17 09:53 35.429833 -119.046870 142 508ft 0kts

Navigation Log

Ident Type
Flight plan parsing failed, navigation log unavailable